Time,TemperatureF,DewpointF,PressureIn,WindDirection,WindDirectionDegrees,WindSpeedMPH,WindSpeedGustMPH,Humidity,HourlyPrecipIn,Conditions,Clouds,dailyrainin,SoftwareType,DateUTC
2013-01-09 00:00:00,41.3,36.2,30.37,East,100,0.0,1.0,82,0.00,,,0.00,Wunderground v.1.15,2013-01-09 05:00:00,
2013-01-09 00:02:00,41.3,36.2,30.37,East,101,0.0,0.0,82,0.00,,,0.00,Wunderground v.1.15,2013-01-09 05:02:00,
2013-01-09 00:05:00,41.3,36.2,30.37,East,100,0.0,0.0,82,0.00,,,0.00,Wunderground v.1.15,2013-01-09 05:05:00,
2013-01-09 00:11:00,41.4,36.3,30.37,ESE,103,0.0,0.0,82,0.00,,,0.00,Wunderground v.1.15,2013-01-09 05:11:00,
2013-01-09 00:16:00,41.2,36.1,30.36,ESE,104,0.0,0.0,82,0.00,,,0.00,Wunderground v.1.15,2013-01-09 05:16:00,
2013-01-09 00:21:00,41.0,36.2,30.37,ESE,102,0.0,0.0,83,0.00,,,0.00,Wunderground v.1.15,2013-01-09 05:21:00,
2013-01-09 00:27:00,41.1,36.3,30.37,ESE,102,0.0,0.0,83,0.00,,,0.00,Wunderground v.1.15,2013-01-09 05:27:00,
2013-01-09 00:32:00,41.0,36.2,30.37,East,101,0.0,0.0,83,0.00,,,0.00,Wunderground v.1.15,2013-01-09 05:32:00,
2013-01-09 00:37:00,40.9,36.4,30.37,ESE,102,0.0,0.0,84,0.00,,,0.00,Wunderground v.1.15,2013-01-09 05:37:00,
2013-01-09 00:43:00,40.6,35.8,30.37,East,101,0.0,0.0,83,0.00,,,0.00,Wunderground v.1.15,2013-01-09 05:43:00,
2013-01-09 00:48:00,40.4,35.9,30.37,East,101,0.0,0.0,84,0.00,,,0.00,Wunderground v.1.15,2013-01-09 05:48:00,
2013-01-09 00:53:00,40.1,35.7,30.37,ESE,103,0.0,0.0,84,0.00,,,0.00,Wunderground v.1.15,2013-01-09 05:53:00,
2013-01-09 00:59:00,40.0,35.9,30.37,East,98,0.0,0.0,85,0.00,,,0.00,Wunderground v.1.15,2013-01-09 05:59:00,
2013-01-09 01:04:00,39.8,35.7,30.38,East,98,0.0,0.0,85,0.00,,,0.00,Wunderground v.1.15,2013-01-09 06:04:00,
2013-01-09 01:09:00,39.2,35.1,30.38,East,98,0.0,0.0,85,0.00,,,0.00,Wunderground v.1.15,2013-01-09 06:09:00,
2013-01-09 01:15:00,38.5,34.4,30.38,East,99,0.0,0.0,85,0.00,,,0.00,Wunderground v.1.15,2013-01-09 06:15:00,
2013-01-09 01:20:00,38.2,34.1,30.38,East,100,0.0,0.0,85,0.00,,,0.00,Wunderground v.1.15,2013-01-09 06:20:00,
2013-01-09 01:26:00,38.3,35.1,30.38,East,98,0.0,0.0,88,0.00,,,0.00,Wunderground v.1.15,2013-01-09 06:26:00,
2013-01-09 01:31:00,38.7,35.7,30.37,East,101,0.0,0.0,89,0.00,,,0.00,Wunderground v.1.15,2013-01-09 06:31:00,
2013-01-09 01:36:00,38.9,35.6,30.36,East,97,0.0,0.0,88,0.00,,,0.00,Wunderground v.1.15,2013-01-09 06:36:00,
2013-01-09 01:41:00,39.1,35.8,30.36,East,91,0.0,0.0,88,0.00,,,0.00,Wunderground v.1.15,2013-01-09 06:41:00,
2013-01-09 01:47:00,39.1,35.8,30.37,East,94,0.0,0.0,88,0.00,,,0.00,Wunderground v.1.15,2013-01-09 06:47:00,
2013-01-09 01:52:00,39.2,35.9,30.37,East,91,0.0,0.0,88,0.00,,,0.00,Wunderground v.1.15,2013-01-09 06:52:00,
2013-01-09 01:57:00,39.4,36.1,30.37,East,94,0.0,0.0,88,0.00,,,0.00,Wunderground v.1.15,2013-01-09 06:57:00,
2013-01-09 02:03:00,39.1,35.6,30.37,East,95,2.0,3.0,87,0.00,,,0.00,Wunderground v.1.15,2013-01-09 07:03:00,
2013-01-09 02:08:00,38.5,35.0,30.37,East,95,2.0,3.0,87,0.00,,,0.00,Wunderground v.1.15,2013-01-09 07:08:00,
2013-01-09 02:14:00,38.4,35.2,30.37,East,98,2.0,3.0,88,0.00,,,0.00,Wunderground v.1.15,2013-01-09 07:14:00,
2013-01-09 02:19:00,38.0,34.8,30.37,East,89,3.0,3.0,88,0.00,,,0.00,Wunderground v.1.15,2013-01-09 07:19:00,
2013-01-09 02:25:00,37.8,34.8,30.37,East,87,3.0,3.0,89,0.00,,,0.00,Wunderground v.1.15,2013-01-09 07:25:00,
2013-01-09 02:30:00,38.1,35.4,30.37,ESE,103,3.0,3.0,90,0.00,,,0.00,Wunderground v.1.15,2013-01-09 07:30:00,
2013-01-09 02:36:00,38.3,35.3,30.36,East,92,2.0,3.0,89,0.00,,,0.00,Wunderground v.1.15,2013-01-09 07:36:00,
2013-01-09 02:41:00,38.1,35.1,30.37,East,94,2.0,3.0,89,0.00,,,0.00,Wunderground v.1.15,2013-01-09 07:41:00,
2013-01-09 02:47:00,38.1,35.1,30.37,East,91,3.0,3.0,89,0.00,,,0.00,Wunderground v.1.15,2013-01-09 07:47:00,
2013-01-09 02:52:00,38.2,35.2,30.36,East,86,3.0,3.0,89,0.00,,,0.00,Wunderground v.1.15,2013-01-09 07:52:00,
2013-01-09 02:58:00,38.3,35.3,30.37,ESE,106,2.0,3.0,89,0.00,,,0.00,Wunderground v.1.15,2013-01-09 07:58:00,
2013-01-09 03:03:00,38.4,35.4,30.37,ESE,103,2.0,3.0,89,0.00,,,0.00,Wunderground v.1.15,2013-01-09 08:03:00,
2013-01-09 03:09:00,38.2,35.2,30.37,East,90,2.0,3.0,89,0.00,,,0.00,Wunderground v.1.15,2013-01-09 08:09:00,
2013-01-09 03:14:00,38.0,35.0,30.37,East,94,2.0,2.0,89,0.00,,,0.00,Wunderground v.1.15,2013-01-09 08:14:00,
2013-01-09 03:20:00,37.8,34.8,30.37,East,101,2.0,3.0,89,0.00,,,0.00,Wunderground v.1.15,2013-01-09 08:20:00,
2013-01-09 03:25:00,37.7,35.0,30.37,ESE,115,2.0,2.0,90,0.00,,,0.00,Wunderground v.1.15,2013-01-09 08:25:00,
2013-01-09 03:31:00,37.5,34.6,30.37,ESE,102,2.0,3.0,89,0.00,,,0.00,Wunderground v.1.15,2013-01-09 08:31:00,
2013-01-09 03:36:00,37.4,34.7,30.38,ESE,108,2.0,3.0,90,0.00,,,0.00,Wunderground v.1.15,2013-01-09 08:36:00,
2013-01-09 03:42:00,37.5,34.8,30.38,South,172,1.0,3.0,90,0.00,,,0.00,Wunderground v.1.15,2013-01-09 08:42:00,
2013-01-09 03:47:00,37.5,34.6,30.38,ESE,122,2.0,2.0,89,0.00,,,0.00,Wunderground v.1.15,2013-01-09 08:47:00,
2013-01-09 03:53:00,37.5,34.6,30.37,East,86,2.0,2.0,89,0.00,,,0.00,Wunderground v.1.15,2013-01-09 08:53:00,
2013-01-09 03:58:00,37.5,34.8,30.37,East,100,1.0,3.0,90,0.00,,,0.00,Wunderground v.1.15,2013-01-09 08:58:00,
2013-01-09 04:04:00,37.6,34.9,30.37,East,97,2.0,3.0,90,0.00,,,0.00,Wunderground v.1.15,2013-01-09 09:04:00,
2013-01-09 04:09:00,37.8,35.1,30.37,East,94,3.0,3.0,90,0.00,,,0.00,Wunderground v.1.15,2013-01-09 09:09:00,
2013-01-09 04:15:00,37.9,35.2,30.36,East,94,2.0,3.0,90,0.00,,,0.00,Wunderground v.1.15,2013-01-09 09:15:00,
2013-01-09 04:20:00,37.2,34.0,30.36,East,94,2.0,3.0,88,0.00,,,0.00,Wunderground v.1.15,2013-01-09 09:20:00,
2013-01-09 04:26:00,36.4,33.5,30.36,East,92,3.0,3.0,89,0.00,,,0.00,Wunderground v.1.15,2013-01-09 09:26:00,
2013-01-09 04:31:00,35.9,33.0,30.36,East,94,3.0,4.0,89,0.00,,,0.00,Wunderground v.1.15,2013-01-09 09:31:00,
2013-01-09 04:37:00,35.6,33.2,30.36,East,101,1.0,3.0,91,0.00,,,0.00,Wunderground v.1.15,2013-01-09 09:37:00,
2013-01-09 04:42:00,35.5,33.1,30.36,ESE,103,2.0,3.0,91,0.00,,,0.00,Wunderground v.1.15,2013-01-09 09:42:00,
2013-01-09 04:48:00,35.9,33.8,30.36,East,92,2.0,3.0,92,0.00,,,0.00,Wunderground v.1.15,2013-01-09 09:48:00,
2013-01-09 04:53:00,36.3,34.2,30.36,East,96,2.0,3.0,92,0.00,,,0.00,Wunderground v.1.15,2013-01-09 09:53:00,
2013-01-09 04:58:00,36.5,34.4,30.36,East,90,2.0,3.0,92,0.00,,,0.00,Wunderground v.1.15,2013-01-09 09:58:00,
2013-01-09 05:04:00,36.7,34.6,30.35,East,88,2.0,3.0,92,0.00,,,0.00,Wunderground v.1.15,2013-01-09 10:04:00,
2013-01-09 05:09:00,36.5,34.1,30.35,East,91,1.0,3.0,91,0.00,,,0.00,Wunderground v.1.15,2013-01-09 10:09:00,
2013-01-09 05:15:00,36.5,34.4,30.35,East,98,1.0,2.0,92,0.00,,,0.00,Wunderground v.1.15,2013-01-09 10:15:00,
2013-01-09 05:20:00,36.7,34.6,30.35,East,99,1.0,3.0,92,0.00,,,0.00,Wunderground v.1.15,2013-01-09 10:20:00,
2013-01-09 05:26:00,36.3,33.9,30.35,East,94,2.0,3.0,91,0.00,,,0.00,Wunderground v.1.15,2013-01-09 10:26:00,
2013-01-09 05:31:00,36.1,33.7,30.35,East,98,2.0,3.0,91,0.00,,,0.00,Wunderground v.1.15,2013-01-09 10:31:00,
2013-01-09 05:37:00,36.1,34.0,30.34,East,96,2.0,3.0,92,0.00,,,0.00,Wunderground v.1.15,2013-01-09 10:37:00,
2013-01-09 05:42:00,36.5,34.4,30.34,East,91,2.0,3.0,92,0.00,,,0.00,Wunderground v.1.15,2013-01-09 10:42:00,
2013-01-09 05:48:00,36.9,34.8,30.34,East,96,3.0,3.0,92,0.00,,,0.00,Wunderground v.1.15,2013-01-09 10:48:00,
2013-01-09 05:53:00,37.3,35.2,30.34,ENE,75,2.0,3.0,92,0.00,,,0.00,Wunderground v.1.15,2013-01-09 10:53:00,
2013-01-09 05:59:00,37.5,35.1,30.34,East,96,0.0,2.0,91,0.00,,,0.00,Wunderground v.1.15,2013-01-09 10:59:00,
2013-01-09 06:04:00,37.2,34.5,30.34,East,97,1.0,2.0,90,0.00,,,0.00,Wunderground v.1.15,2013-01-09 11:04:00,
2013-01-09 06:10:00,37.2,34.8,30.34,East,84,2.0,2.0,91,0.00,,,0.00,Wunderground v.1.15,2013-01-09 11:10:00,
2013-01-09 06:15:00,37.3,34.9,30.34,East,89,1.0,1.0,91,0.00,,,0.00,Wunderground v.1.15,2013-01-09 11:15:00,
2013-01-09 06:21:00,37.0,34.6,30.34,East,91,1.0,1.0,91,0.00,,,0.00,Wunderground v.1.15,2013-01-09 11:21:00,
2013-01-09 06:26:00,36.8,34.4,30.35,East,87,2.0,2.0,91,0.00,,,0.00,Wunderground v.1.15,2013-01-09 11:26:00,
2013-01-09 06:32:00,36.3,33.6,30.35,East,84,1.0,2.0,90,0.00,,,0.00,Wunderground v.1.15,2013-01-09 11:32:00,
2013-01-09 06:37:00,35.7,33.3,30.35,East,84,0.0,1.0,91,0.00,,,0.00,Wunderground v.1.15,2013-01-09 11:37:00,
2013-01-09 06:43:00,35.4,33.0,30.36,ESE,110,1.0,1.0,91,0.00,,,0.00,Wunderground v.1.15,2013-01-09 11:43:00,
2013-01-09 06:48:00,35.2,32.8,30.36,East,96,1.0,2.0,91,0.00,,,0.00,Wunderground v.1.15,2013-01-09 11:48:00,
2013-01-09 06:54:00,35.3,33.2,30.36,East,91,2.0,2.0,92,0.00,,,0.00,Wunderground v.1.15,2013-01-09 11:54:00,
2013-01-09 06:59:00,35.1,33.0,30.36,East,93,2.0,2.0,92,0.00,,,0.00,Wunderground v.1.15,2013-01-09 11:59:00,
2013-01-09 07:05:00,35.0,32.9,30.36,East,94,2.0,3.0,92,0.00,,,0.00,Wunderground v.1.15,2013-01-09 12:05:00,
2013-01-09 07:10:00,34.9,33.1,30.36,East,91,2.0,2.0,93,0.00,,,0.00,Wunderground v.1.15,2013-01-09 12:10:00,
2013-01-09 07:16:00,34.8,32.7,30.36,ESE,102,2.0,3.0,92,0.00,,,0.00,Wunderground v.1.15,2013-01-09 12:16:00,
2013-01-09 07:21:00,34.9,33.1,30.36,East,98,2.0,2.0,93,0.00,,,0.00,Wunderground v.1.15,2013-01-09 12:21:00,
2013-01-09 07:27:00,34.8,33.0,30.36,East,96,2.0,3.0,93,0.00,,,0.00,Wunderground v.1.15,2013-01-09 12:27:00,
2013-01-09 07:32:00,34.9,33.1,30.36,East,98,2.0,2.0,93,0.00,,,0.00,Wunderground v.1.15,2013-01-09 12:32:00,
2013-01-09 07:38:00,35.1,33.3,30.36,East,90,1.0,2.0,93,0.00,,,0.00,Wunderground v.1.15,2013-01-09 12:38:00,
2013-01-09 07:44:00,35.2,33.4,30.36,East,101,3.0,3.0,93,0.00,,,0.00,Wunderground v.1.15,2013-01-09 12:44:00,
2013-01-09 07:49:00,35.8,34.2,30.36,ESE,107,1.0,4.0,94,0.00,,,0.00,Wunderground v.1.15,2013-01-09 12:49:00,
2013-01-09 07:55:00,36.3,34.7,30.36,ESE,108,1.0,2.0,94,0.00,,,0.00,Wunderground v.1.15,2013-01-09 12:55:00,
2013-01-09 08:00:00,36.5,34.7,30.36,East,90,2.0,2.0,93,0.00,,,0.00,Wunderground v.1.15,2013-01-09 13:00:00,
2013-01-09 08:06:00,36.8,35.0,30.36,East,100,1.0,3.0,93,0.00,,,0.00,Wunderground v.1.15,2013-01-09 13:06:00,
2013-01-09 08:11:00,37.3,35.5,30.37,East,94,1.0,2.0,93,0.00,,,0.00,Wunderground v.1.15,2013-01-09 13:11:00,
2013-01-09 08:17:00,37.9,36.1,30.37,East,83,2.0,3.0,93,0.00,,,0.00,Wunderground v.1.15,2013-01-09 13:17:00,
2013-01-09 08:22:00,38.5,36.4,30.38,ESE,108,0.0,2.0,92,0.00,,,0.00,Wunderground v.1.15,2013-01-09 13:22:00,
2013-01-09 08:28:00,39.1,37.0,30.38,East,100,1.0,2.0,92,0.00,,,0.00,Wunderground v.1.15,2013-01-09 13:28:00,
2013-01-09 08:34:00,39.5,37.1,30.37,ESE,112,1.0,1.0,91,0.00,,,0.00,Wunderground v.1.15,2013-01-09 13:34:00,
2013-01-09 08:39:00,39.9,37.5,30.37,ESE,119,1.0,2.0,91,0.00,,,0.00,Wunderground v.1.15,2013-01-09 13:39:00,
2013-01-09 08:45:00,40.2,37.5,30.37,ESE,113,1.0,2.0,90,0.00,,,0.00,Wunderground v.1.15,2013-01-09 13:45:00,
2013-01-09 08:50:00,40.5,37.8,30.37,East,98,1.0,2.0,90,0.00,,,0.00,Wunderground v.1.15,2013-01-09 13:50:00,
2013-01-09 08:56:00,40.9,37.9,30.37,ESE,108,0.0,1.0,89,0.00,,,0.00,Wunderground v.1.15,2013-01-09 13:56:00,
2013-01-09 09:02:00,41.3,38.3,30.37,East,83,1.0,1.0,89,0.00,,,0.00,Wunderground v.1.15,2013-01-09 14:02:00,
2013-01-09 09:07:00,41.8,38.5,30.37,ESE,113,0.0,2.0,88,0.00,,,0.00,Wunderground v.1.15,2013-01-09 14:07:00,
2013-01-09 09:13:00,42.2,38.6,30.36,SE,132,1.0,1.0,87,0.00,,,0.00,Wunderground v.1.15,2013-01-09 14:13:00,
2013-01-09 09:18:00,42.4,38.5,30.36,ESE,112,0.0,2.0,86,0.00,,,0.00,Wunderground v.1.15,2013-01-09 14:18:00,
2013-01-09 09:24:00,42.7,38.8,30.36,ESE,102,1.0,1.0,86,0.00,,,0.00,Wunderground v.1.15,2013-01-09 14:24:00,
2013-01-09 09:30:00,43.2,39.3,30.35,SE,127,0.0,4.0,86,0.00,,,0.00,Wunderground v.1.15,2013-01-09 14:30:00,
2013-01-09 09:35:00,43.7,39.5,30.35,ESE,103,0.0,2.0,85,0.00,,,0.00,Wunderground v.1.15,2013-01-09 14:35:00,
2013-01-09 09:42:00,44.3,39.5,30.36,SSE,165,2.0,3.0,83,0.00,,,0.00,Wunderground v.1.15,2013-01-09 14:42:00,
2013-01-09 09:47:00,44.8,39.3,30.35,South,169,2.0,3.0,81,0.00,,,0.00,Wunderground v.1.15,2013-01-09 14:47:00,
2013-01-09 09:53:00,45.1,39.3,30.35,SSE,148,3.0,3.0,80,0.00,,,0.00,Wunderground v.1.15,2013-01-09 14:53:00,
2013-01-09 09:58:00,45.3,39.5,30.35,SSE,149,3.0,4.0,80,0.00,,,0.00,Wunderground v.1.15,2013-01-09 14:58:00,
2013-01-09 10:04:00,45.4,39.3,30.35,SSW,200,4.0,6.0,79,0.00,,,0.00,Wunderground v.1.15,2013-01-09 15:04:00,
2013-01-09 10:10:00,45.1,39.3,30.35,South,187,5.0,6.0,80,0.00,,,0.00,Wunderground v.1.15,2013-01-09 15:10:00,
2013-01-09 10:15:00,44.6,39.1,30.35,South,186,7.0,8.0,81,0.00,,,0.00,Wunderground v.1.15,2013-01-09 15:15:00,
2013-01-09 10:21:00,44.8,39.3,30.36,South,186,6.0,9.0,81,0.00,,,0.00,Wunderground v.1.15,2013-01-09 15:21:00,
2013-01-09 10:26:00,44.7,38.9,30.36,South,188,4.0,7.0,80,0.00,,,0.00,Wunderground v.1.15,2013-01-09 15:26:00,
2013-01-09 10:32:00,44.7,38.9,30.36,SSW,200,4.0,7.0,80,0.00,,,0.00,Wunderground v.1.15,2013-01-09 15:32:00,
2013-01-09 10:38:00,44.4,38.9,30.36,South,191,3.0,5.0,81,0.00,,,0.00,Wunderground v.1.15,2013-01-09 15:38:00,
2013-01-09 10:43:00,44.2,39.1,30.35,South,187,4.0,4.0,82,0.00,,,0.00,Wunderground v.1.15,2013-01-09 15:43:00,
2013-01-09 10:49:00,44.3,39.2,30.35,South,186,4.0,4.0,82,0.00,,,0.00,Wunderground v.1.15,2013-01-09 15:49:00,
2013-01-09 10:54:00,44.9,39.7,30.34,South,184,6.0,6.0,82,0.00,,,0.00,Wunderground v.1.15,2013-01-09 15:54:00,
2013-01-09 10:59:00,45.7,39.6,30.34,South,188,6.0,6.0,79,0.00,,,0.00,Wunderground v.1.15,2013-01-09 15:59:00,
2013-01-09 11:05:00,46.1,39.6,30.33,SSW,193,7.0,7.0,78,0.00,,,0.00,Wunderground v.1.15,2013-01-09 16:05:00,
2013-01-09 11:11:00,46.2,39.4,30.33,South,190,6.0,7.0,77,0.00,,,0.00,Wunderground v.1.15,2013-01-09 16:11:00,
2013-01-09 11:16:00,46.1,39.6,30.33,SSW,195,6.0,7.0,78,0.00,,,0.00,Wunderground v.1.15,2013-01-09 16:16:00,
2013-01-09 11:22:00,45.9,39.8,30.33,SSW,198,5.0,6.0,79,0.00,,,0.00,Wunderground v.1.15,2013-01-09 16:22:00,
2013-01-09 11:28:00,45.5,39.7,30.33,SW,215,3.0,6.0,80,0.00,,,0.00,Wunderground v.1.15,2013-01-09 16:28:00,
2013-01-09 11:34:00,45.1,40.2,30.32,SSW,200,1.0,4.0,83,0.00,,,0.00,Wunderground v.1.15,2013-01-09 16:34:00,
2013-01-09 11:39:00,45.1,40.2,30.32,SSW,195,2.0,4.0,83,0.00,,,0.00,Wunderground v.1.15,2013-01-09 16:39:00,
2013-01-09 11:45:00,45.4,40.2,30.32,SSW,194,0.0,2.0,82,0.00,,,0.00,Wunderground v.1.15,2013-01-09 16:45:00,
2013-01-09 11:50:00,45.5,40.0,30.32,SSW,194,0.0,2.0,81,0.00,,,0.00,Wunderground v.1.15,2013-01-09 16:50:00,
2013-01-09 11:56:00,45.5,40.3,30.31,SSW,195,0.0,0.0,82,0.00,,,0.00,Wunderground v.1.15,2013-01-09 16:56:00,
2013-01-09 12:03:00,45.6,40.4,30.30,South,188,0.0,0.0,82,0.00,,,0.00,Wunderground v.1.15,2013-01-09 17:03:00,
2013-01-09 12:08:00,46.1,40.9,30.30,South,184,2.0,2.0,82,0.00,,,0.00,Wunderground v.1.15,2013-01-09 17:08:00,
2013-01-09 12:14:00,46.1,40.6,30.30,SW,229,1.0,1.0,81,0.00,,,0.00,Wunderground v.1.15,2013-01-09 17:14:00,
2013-01-09 12:19:00,45.9,40.7,30.29,South,190,1.0,3.0,82,0.00,,,0.00,Wunderground v.1.15,2013-01-09 17:19:00,
2013-01-09 12:25:00,45.9,40.7,30.28,South,186,1.0,2.0,82,0.00,,,0.00,Wunderground v.1.15,2013-01-09 17:25:00,
2013-01-09 12:31:00,46.1,40.9,30.27,South,190,0.0,2.0,82,0.00,,,0.00,Wunderground v.1.15,2013-01-09 17:31:00,
2013-01-09 12:37:00,46.3,40.8,30.28,South,190,0.0,1.0,81,0.00,,,0.00,Wunderground v.1.15,2013-01-09 17:37:00,
2013-01-09 12:42:00,46.1,40.6,30.28,SW,233,2.0,2.0,81,0.00,,,0.00,Wunderground v.1.15,2013-01-09 17:42:00,
2013-01-09 12:48:00,45.7,40.8,30.29,WSW,250,3.0,3.0,83,0.00,,,0.00,Wunderground v.1.15,2013-01-09 17:48:00,
2013-01-09 12:53:00,45.3,40.7,30.29,WSW,247,2.0,3.0,84,0.00,,,0.00,Wunderground v.1.15,2013-01-09 17:53:00,
2013-01-09 12:59:00,45.0,40.8,30.29,WSW,252,4.0,4.0,85,0.00,,,0.00,Wunderground v.1.15,2013-01-09 17:59:00,
2013-01-09 13:04:00,45.0,40.8,30.29,West,259,4.0,4.0,85,0.00,,,0.00,Wunderground v.1.15,2013-01-09 18:04:00,
2013-01-09 13:11:00,45.8,40.9,30.29,SW,219,2.0,5.0,83,0.00,,,0.00,Wunderground v.1.15,2013-01-09 18:11:00,
2013-01-09 13:16:00,45.9,41.0,30.29,SSW,193,0.0,4.0,83,0.00,,,0.00,Wunderground v.1.15,2013-01-09 18:16:00,
2013-01-09 13:22:00,46.3,41.4,30.28,SSW,193,0.0,0.0,83,0.00,,,0.00,Wunderground v.1.15,2013-01-09 18:22:00,
2013-01-09 13:27:00,46.6,41.7,30.28,SSW,193,0.0,0.0,83,0.00,,,0.00,Wunderground v.1.15,2013-01-09 18:27:00,
2013-01-09 13:33:00,46.3,41.1,30.28,NW,323,0.0,0.0,82,0.00,,,0.00,Wunderground v.1.15,2013-01-09 18:33:00,
2013-01-09 13:38:00,45.8,40.6,30.29,NW,309,2.0,2.0,82,0.00,,,0.00,Wunderground v.1.15,2013-01-09 18:38:00,
2013-01-09 13:41:00,45.5,40.9,30.29,NW,320,3.0,3.0,84,0.00,,,0.00,Wunderground v.1.15,2013-01-09 18:41:00,
2013-01-09 13:44:00,45.3,41.1,30.29,NW,311,2.0,4.0,85,0.00,,,0.00,Wunderground v.1.15,2013-01-09 18:44:00,
2013-01-09 13:49:00,45.0,40.8,30.29,NW,307,2.0,4.0,85,0.00,,,0.00,Wunderground v.1.15,2013-01-09 18:49:00,
2013-01-09 13:50:00,45.0,41.1,30.29,WNW,298,2.0,4.0,86,0.00,,,0.00,Wunderground v.1.15,2013-01-09 18:50:00,
2013-01-09 13:55:00,45.0,41.1,30.29,WNW,292,1.0,3.0,86,0.00,,,0.00,Wunderground v.1.15,2013-01-09 18:55:00,
2013-01-09 14:00:00,44.9,41.0,30.29,NE,35,1.0,3.0,86,0.00,,,0.00,Wunderground v.1.15,2013-01-09 19:00:00,
2013-01-09 14:05:00,45.2,41.6,30.29,NE,37,0.0,2.0,87,0.00,,,0.00,Wunderground v.1.15,2013-01-09 19:05:00,
2013-01-09 14:10:00,45.9,41.9,30.28,NE,37,0.0,0.0,86,0.00,,,0.00,Wunderground v.1.15,2013-01-09 19:10:00,
2013-01-09 14:16:00,46.7,42.4,30.28,NE,37,0.0,0.0,85,0.00,,,0.00,Wunderground v.1.15,2013-01-09 19:16:00,
2013-01-09 14:21:00,47.7,42.2,30.28,NE,37,0.0,0.0,81,0.00,,,0.00,Wunderground v.1.15,2013-01-09 19:21:00,
2013-01-09 14:27:00,48.2,42.0,30.29,NE,37,0.0,0.0,79,0.00,,,0.00,Wunderground v.1.15,2013-01-09 19:27:00,
2013-01-09 14:32:00,48.6,42.0,30.29,NE,37,0.0,0.0,78,0.00,,,0.00,Wunderground v.1.15,2013-01-09 19:32:00,
2013-01-09 14:38:00,48.9,42.0,30.29,NE,37,0.0,0.0,77,0.00,,,0.00,Wunderground v.1.15,2013-01-09 19:38:00,
2013-01-09 14:44:00,48.8,41.6,30.28,SSE,165,0.0,0.0,76,0.00,,,0.00,Wunderground v.1.15,2013-01-09 19:44:00,
2013-01-09 14:49:00,49.0,41.8,30.27,SSE,165,0.0,0.0,76,0.00,,,0.00,Wunderground v.1.15,2013-01-09 19:49:00,
2013-01-09 14:55:00,49.3,41.7,30.27,South,185,0.0,0.0,75,0.00,,,0.00,Wunderground v.1.15,2013-01-09 19:55:00,
2013-01-09 15:00:00,49.1,41.5,30.28,WSW,246,0.0,0.0,75,0.00,,,0.00,Wunderground v.1.15,2013-01-09 20:00:00,
2013-01-09 15:06:00,48.6,41.7,30.27,SSW,212,2.0,2.0,77,0.00,,,0.00,Wunderground v.1.15,2013-01-09 20:06:00,
2013-01-09 15:12:00,47.7,41.5,30.27,SSW,205,3.0,3.0,79,0.00,,,0.00,Wunderground v.1.15,2013-01-09 20:12:00,
2013-01-09 15:17:00,47.3,41.8,30.26,South,177,3.0,3.0,81,0.00,,,0.00,Wunderground v.1.15,2013-01-09 20:17:00,
2013-01-09 15:23:00,47.7,42.2,30.25,SSE,166,2.0,2.0,81,0.00,,,0.00,Wunderground v.1.15,2013-01-09 20:23:00,
2013-01-09 15:29:00,48.4,42.5,30.24,SSE,159,1.0,2.0,80,0.00,,,0.00,Wunderground v.1.15,2013-01-09 20:29:00,
2013-01-09 15:34:00,49.0,42.8,30.23,SSE,149,2.0,2.0,79,0.00,,,0.00,Wunderground v.1.15,2013-01-09 20:34:00,
2013-01-09 15:40:00,49.3,42.7,30.23,SSE,159,0.0,2.0,78,0.00,,,0.00,Wunderground v.1.15,2013-01-09 20:40:00,
2013-01-09 15:46:00,49.4,42.8,30.23,SE,145,1.0,1.0,78,0.00,,,0.00,Wunderground v.1.15,2013-01-09 20:46:00,
2013-01-09 15:51:00,49.5,42.6,30.22,SE,138,2.0,2.0,77,0.00,,,0.00,Wunderground v.1.15,2013-01-09 20:51:00,
2013-01-09 15:56:00,49.5,42.6,30.23,South,176,4.0,4.0,77,0.00,,,0.00,Wunderground v.1.15,2013-01-09 20:56:00,
2013-01-09 16:02:00,49.4,42.5,30.23,SE,127,1.0,3.0,77,0.00,,,0.00,Wunderground v.1.15,2013-01-09 21:02:00,
2013-01-09 16:08:00,49.4,42.8,30.24,SE,136,0.0,3.0,78,0.00,,,0.00,Wunderground v.1.15,2013-01-09 21:08:00,
2013-01-09 16:13:00,49.3,42.7,30.23,SSE,168,0.0,1.0,78,0.00,,,0.00,Wunderground v.1.15,2013-01-09 21:13:00,
2013-01-09 16:19:00,49.3,42.7,30.23,SE,145,2.0,2.0,78,0.00,,,0.00,Wunderground v.1.15,2013-01-09 21:19:00,
2013-01-09 16:24:00,49.3,42.7,30.23,SE,141,3.0,3.0,78,0.00,,,0.00,Wunderground v.1.15,2013-01-09 21:24:00,
2013-01-09 16:30:00,49.5,42.9,30.22,SE,146,0.0,3.0,78,0.00,,,0.00,Wunderground v.1.15,2013-01-09 21:30:00,
2013-01-09 16:35:00,49.6,43.4,30.23,SSE,163,1.0,2.0,79,0.00,,,0.00,Wunderground v.1.15,2013-01-09 21:35:00,
2013-01-09 16:41:00,49.9,43.6,30.23,SSE,149,2.0,2.0,79,0.00,,,0.00,Wunderground v.1.15,2013-01-09 21:41:00,
2013-01-09 16:46:00,50.3,44.4,30.23,SSE,153,4.0,4.0,80,0.00,,,0.00,Wunderground v.1.15,2013-01-09 21:46:00,
2013-01-09 16:52:00,50.8,44.9,30.22,SSW,208,7.0,7.0,80,0.00,,,0.00,Wunderground v.1.15,2013-01-09 21:52:00,
2013-01-09 16:58:00,51.4,45.1,30.22,South,184,5.0,7.0,79,0.00,,,0.00,Wunderground v.1.15,2013-01-09 21:58:00,
2013-01-09 17:03:00,51.8,45.5,30.22,SE,131,6.0,6.0,79,0.00,,,0.00,Wunderground v.1.15,2013-01-09 22:03:00,
2013-01-09 17:09:00,52.1,45.4,30.21,South,173,2.0,6.0,78,0.00,,,0.00,Wunderground v.1.15,2013-01-09 22:09:00,
2013-01-09 17:14:00,52.3,46.0,30.21,SW,218,1.0,8.0,79,0.00,,,0.00,Wunderground v.1.15,2013-01-09 22:14:00,
2013-01-09 17:20:00,51.6,44.6,30.21,South,184,4.0,8.0,77,0.00,,,0.00,Wunderground v.1.15,2013-01-09 22:20:00,
2013-01-09 17:25:00,51.8,46.2,30.21,SSE,163,3.0,9.0,81,0.00,,,0.00,Wunderground v.1.15,2013-01-09 22:25:00,
2013-01-09 17:31:00,51.3,45.0,30.22,SSW,207,4.0,9.0,79,0.00,,,0.00,Wunderground v.1.15,2013-01-09 22:31:00,
2013-01-09 17:36:00,50.5,45.2,30.22,South,186,4.0,5.0,82,0.00,,,0.00,Wunderground v.1.15,2013-01-09 22:36:00,
2013-01-09 17:42:00,50.5,45.2,30.22,SSE,153,3.0,7.0,82,0.00,,,0.00,Wunderground v.1.15,2013-01-09 22:42:00,
2013-01-09 17:47:00,51.2,46.2,30.22,South,187,5.0,6.0,83,0.00,,,0.00,Wunderground v.1.15,2013-01-09 22:47:00,
2013-01-09 17:53:00,51.5,46.2,30.22,South,176,8.0,8.0,82,0.00,,,0.00,Wunderground v.1.15,2013-01-09 22:53:00,
2013-01-09 17:59:00,51.8,46.5,30.23,South,173,5.0,10.0,82,0.00,,,0.00,Wunderground v.1.15,2013-01-09 22:59:00,
2013-01-09 18:04:00,51.2,45.6,30.23,South,188,6.0,6.0,81,0.00,,,0.00,Wunderground v.1.15,2013-01-09 23:04:00,
2013-01-09 18:10:00,50.1,44.5,30.23,South,179,5.0,6.0,81,0.00,,,0.00,Wunderground v.1.15,2013-01-09 23:10:00,
2013-01-09 18:15:00,49.1,44.5,30.23,South,191,5.0,6.0,84,0.00,,,0.00,Wunderground v.1.15,2013-01-09 23:15:00,
2013-01-09 18:21:00,48.6,44.3,30.22,South,176,5.0,6.0,85,0.00,,,0.00,Wunderground v.1.15,2013-01-09 23:21:00,
2013-01-09 18:26:00,48.5,44.5,30.22,South,187,4.0,5.0,86,0.00,,,0.00,Wunderground v.1.15,2013-01-09 23:26:00,
2013-01-09 18:32:00,48.5,44.8,30.22,SW,214,4.0,5.0,87,0.00,,,0.00,Wunderground v.1.15,2013-01-09 23:32:00,
2013-01-09 18:37:00,48.1,44.1,30.22,SW,224,2.0,4.0,86,0.00,,,0.00,Wunderground v.1.15,2013-01-09 23:37:00,
2013-01-09 18:43:00,47.1,43.4,30.22,SW,233,3.0,4.0,87,0.00,,,0.00,Wunderground v.1.15,2013-01-09 23:43:00,
2013-01-09 18:48:00,46.9,43.8,30.23,SW,228,1.0,3.0,89,0.00,,,0.00,Wunderground v.1.15,2013-01-09 23:48:00,
2013-01-09 18:54:00,46.4,43.0,30.23,SW,235,0.0,1.0,88,0.00,,,0.00,Wunderground v.1.15,2013-01-09 23:54:00,